createdAt,value
2023-03-17T00:01:41.758Z,3.53
2023-03-17T00:04:12.689Z,3.40
2023-03-17T00:06:40.758Z,3.50
2023-03-17T00:09:14.925Z,3.55
2023-03-17T00:11:42.336Z,5.55
2023-03-17T00:14:09.322Z,3.85
2023-03-17T00:16:42.952Z,3.73
2023-03-17T00:19:18.019Z,4.28
2023-03-17T00:21:47.155Z,4.32
2023-03-17T00:24:15.216Z,6.72
2023-03-17T00:26:42.621Z,5.03
2023-03-17T00:29:09.950Z,5.03
2023-03-17T00:31:38.111Z,3.58
2023-03-17T00:34:05.868Z,4.50
2023-03-17T00:36:34.493Z,4.40
2023-03-17T00:39:01.619Z,5.72
2023-03-17T00:41:29.644Z,4.47
2023-03-17T00:43:57.517Z,5.10
2023-03-17T00:46:35.829Z,4.10
2023-03-17T00:49:21.384Z,5.50
2023-03-17T00:51:49.727Z,3.25
2023-03-17T00:54:17.876Z,3.70
2023-03-17T00:56:45.704Z,3.03
2023-03-17T00:59:20.887Z,3.03
2023-03-17T01:01:48.260Z,3.45
2023-03-17T01:04:15.756Z,3.22
2023-03-17T01:06:43.368Z,4.60
2023-03-17T01:09:14.846Z,3.97
2023-03-17T01:11:42.762Z,5.38
2023-03-17T01:14:12.553Z,3.42
2023-03-17T01:16:39.687Z,4.82
2023-03-17T01:19:07.001Z,4.07
2023-03-17T01:21:33.738Z,6.78
2023-03-17T01:24:00.552Z,4.85
2023-03-17T01:26:27.193Z,3.08
2023-03-17T01:28:53.915Z,2.35
2023-03-17T01:31:20.754Z,3.17
2023-03-17T01:33:47.559Z,2.85
2023-03-17T01:36:15.809Z,3.15
2023-03-17T01:38:42.531Z,2.72
2023-03-17T01:41:08.990Z,3.30
2023-03-17T01:43:35.669Z,5.00
2023-03-17T01:46:32.023Z,4.53
2023-03-17T01:49:19.528Z,2.85
2023-03-17T01:51:54.708Z,5.45
2023-03-17T01:54:30.723Z,3.85
2023-03-17T01:57:02.110Z,3.23
2023-03-17T01:59:33.884Z,3.58
2023-03-17T02:02:06.513Z,4.47
2023-03-17T02:04:35.075Z,3.83
2023-03-17T02:07:03.776Z,4.53
2023-03-17T02:09:31.903Z,4.20
2023-03-17T02:12:00.968Z,3.55
2023-03-17T02:14:28.744Z,3.55
2023-03-17T02:16:55.475Z,3.13
2023-03-17T02:19:22.237Z,3.85
2023-03-17T02:21:58.137Z,4.47
2023-03-17T02:24:32.050Z,3.55
2023-03-17T02:27:03.938Z,3.00
2023-03-17T02:29:34.097Z,3.33
2023-03-17T02:32:02.396Z,4.00
2023-03-17T02:34:29.408Z,3.23
2023-03-17T02:36:56.313Z,2.97
2023-03-17T02:39:23.238Z,3.20
2023-03-17T02:41:50.289Z,3.78
2023-03-17T02:44:17.237Z,2.90
2023-03-17T02:46:44.198Z,4.10
2023-03-17T02:49:12.050Z,2.47
2023-03-17T02:51:39.807Z,1.90
2023-03-17T02:54:06.418Z,2.55
2023-03-17T02:56:33.119Z,5.15
2023-03-17T02:58:59.623Z,3.70
2023-03-17T03:01:27.006Z,2.70
2023-03-17T03:03:57.285Z,3.30
2023-03-17T03:06:23.971Z,3.05
2023-03-17T03:08:52.225Z,2.60
2023-03-17T03:11:19.706Z,4.50
2023-03-17T03:13:46.719Z,2.67
2023-03-17T03:16:13.449Z,2.78
2023-03-17T03:18:40.084Z,3.85
2023-03-17T03:21:07.616Z,4.53
2023-03-17T03:23:34.751Z,4.07
2023-03-17T03:26:02.308Z,3.35
2023-03-17T03:28:29.136Z,3.65
2023-03-17T03:30:55.776Z,3.13
2023-03-17T03:33:22.582Z,3.08
2023-03-17T03:35:49.849Z,3.07
2023-03-17T03:38:16.534Z,3.05
2023-03-17T03:40:43.104Z,1.95
2023-03-17T03:43:21.822Z,3.70
2023-03-17T03:45:49.625Z,2.92
2023-03-17T03:48:16.262Z,3.80
2023-03-17T03:50:42.879Z,2.80
2023-03-17T03:53:09.963Z,3.13
2023-03-17T03:55:36.634Z,4.18
2023-03-17T03:58:03.438Z,2.55
2023-03-17T04:00:30.239Z,3.57
2023-03-17T04:02:56.958Z,2.47
2023-03-17T04:05:23.574Z,2.70
2023-03-17T04:07:50.244Z,3.03
2023-03-17T04:10:17.500Z,2.35
2023-03-17T04:12:44.374Z,3.50
2023-03-17T04:15:16.243Z,2.45
2023-03-17T04:17:43.461Z,2.95
2023-03-17T04:20:11.595Z,2.97
2023-03-17T04:22:38.138Z,2.58
2023-03-17T04:25:05.621Z,3.30
2023-03-17T04:27:32.314Z,2.35
2023-03-17T04:29:58.873Z,2.72
2023-03-17T04:32:27.193Z,3.45
2023-03-17T04:34:53.954Z,3.45
2023-03-17T04:37:20.674Z,2.47
2023-03-17T04:39:47.525Z,3.22
2023-03-17T04:42:21.841Z,2.88
2023-03-17T04:44:52.377Z,4.22
2023-03-17T04:47:19.056Z,3.95
2023-03-17T04:49:45.742Z,2.50
2023-03-17T04:52:12.769Z,5.13
2023-03-17T04:54:39.323Z,3.50
2023-03-17T04:57:05.964Z,2.25
2023-03-17T04:59:32.731Z,3.22
2023-03-17T05:01:59.250Z,2.10
2023-03-17T05:04:31.682Z,2.65
2023-03-17T05:06:59.123Z,5.25
2023-03-17T05:09:26.945Z,2.70
2023-03-17T05:11:53.795Z,2.80
2023-03-17T05:14:20.963Z,1.27
2023-03-17T05:16:48.792Z,2.53
2023-03-17T05:19:16.600Z,2.10
2023-03-17T05:21:43.775Z,3.35
2023-03-17T05:24:10.557Z,2.33
2023-03-17T05:26:37.237Z,3.10
2023-03-17T05:29:04.035Z,2.83
2023-03-17T05:31:31.071Z,2.92
2023-03-17T05:33:57.955Z,4.15
2023-03-17T05:36:25.043Z,1.90
2023-03-17T05:38:52.459Z,2.83
2023-03-17T05:41:19.145Z,2.60
2023-03-17T05:43:46.091Z,3.72
2023-03-17T05:46:12.995Z,3.65
2023-03-17T05:48:39.551Z,2.13
2023-03-17T05:51:06.569Z,3.13
2023-03-17T05:53:33.272Z,3.05
2023-03-17T05:55:59.811Z,4.97
2023-03-17T05:58:26.468Z,3.20
2023-03-17T06:00:53.371Z,2.67
2023-03-17T06:03:20.039Z,2.03
2023-03-17T06:05:47.140Z,2.33
2023-03-17T06:08:13.884Z,2.75
2023-03-17T06:10:41.498Z,4.07
2023-03-17T06:13:08.020Z,4.53
2023-03-17T06:15:37.010Z,2.47
2023-03-17T06:18:05.204Z,2.60
2023-03-17T06:20:32.857Z,4.60
2023-03-17T06:23:04.852Z,4.97
2023-03-17T06:25:32.978Z,5.05
2023-03-17T06:28:02.339Z,5.47
2023-03-17T06:30:30.154Z,3.75
2023-03-17T06:32:56.950Z,4.53
2023-03-17T06:35:23.580Z,3.10
2023-03-17T06:37:51.725Z,2.83
2023-03-17T06:40:18.370Z,4.43
2023-03-17T06:42:45.086Z,3.70
2023-03-17T06:45:12.892Z,3.63
2023-03-17T06:47:39.786Z,3.00
2023-03-17T06:50:09.742Z,4.07
2023-03-17T06:52:36.919Z,3.73
2023-03-17T06:55:04.448Z,2.90
2023-03-17T06:57:31.914Z,6.30
2023-03-17T06:59:58.556Z,3.70
2023-03-17T07:02:25.020Z,3.60
2023-03-17T07:04:52.080Z,2.40
2023-03-17T07:07:20.336Z,4.07
2023-03-17T07:09:47.866Z,2.30
2023-03-17T07:12:14.819Z,4.05
2023-03-17T07:14:41.769Z,3.50
2023-03-17T07:17:12.111Z,5.83
2023-03-17T07:19:38.971Z,3.20
2023-03-17T07:22:05.578Z,5.25
2023-03-17T07:24:32.090Z,7.30
2023-03-17T07:26:58.676Z,2.80
2023-03-17T07:29:25.203Z,2.90
2023-03-17T07:31:51.790Z,3.42
2023-03-17T07:34:18.320Z,2.08
2023-03-17T07:36:44.982Z,2.45
2023-03-17T07:39:12.190Z,5.88
2023-03-17T07:41:38.886Z,3.80
2023-03-17T07:44:05.369Z,3.78
2023-03-17T07:46:32.082Z,4.70
2023-03-17T07:48:59.192Z,3.15
2023-03-17T07:51:27.981Z,2.95
2023-03-17T07:54:00.964Z,3.40
2023-03-17T07:56:27.444Z,2.65
2023-03-17T07:58:54.226Z,3.60
2023-03-17T08:01:20.709Z,7.75
2023-03-17T08:03:48.058Z,3.13
2023-03-17T08:06:14.582Z,4.27
2023-03-17T08:08:41.701Z,4.88
2023-03-17T08:11:08.261Z,3.05
2023-03-17T08:13:34.852Z,3.38
2023-03-17T08:16:01.975Z,4.82
2023-03-17T08:18:28.403Z,5.27
2023-03-17T08:20:54.997Z,3.67
2023-03-17T08:23:25.427Z,3.47
2023-03-17T08:25:57.833Z,6.35
2023-03-17T08:28:24.703Z,3.65
2023-03-17T08:30:51.681Z,6.67
2023-03-17T08:33:18.161Z,4.07
2023-03-17T08:35:44.790Z,3.08
2023-03-17T08:38:11.596Z,3.63
2023-03-17T08:40:40.067Z,3.67
2023-03-17T08:43:07.720Z,4.17
2023-03-17T08:45:34.320Z,3.25
2023-03-17T08:48:01.448Z,4.63
2023-03-17T08:50:27.987Z,6.15
2023-03-17T08:52:55.132Z,3.53
2023-03-17T08:55:21.889Z,3.43
2023-03-17T08:57:48.709Z,3.10
2023-03-17T09:00:20.289Z,3.50
2023-03-17T09:02:48.387Z,3.33
2023-03-17T09:05:16.623Z,4.25
2023-03-17T09:07:43.860Z,5.00
2023-03-17T09:10:11.704Z,5.80
2023-03-17T09:12:38.238Z,4.18
2023-03-17T09:15:05.871Z,4.40
2023-03-17T09:17:32.526Z,3.72
2023-03-17T09:19:59.714Z,4.00
2023-03-17T09:22:26.424Z,3.50
2023-03-17T09:24:53.260Z,3.78
2023-03-17T09:27:19.889Z,4.10
2023-03-17T09:29:46.696Z,4.10
2023-03-17T09:32:13.418Z,3.20
2023-03-17T09:34:40.037Z,3.47
2023-03-17T09:37:06.933Z,5.03
2023-03-17T09:39:34.181Z,7.68
2023-03-17T09:42:06.839Z,4.22
2023-03-17T09:45:07.566Z,3.70
2023-03-17T09:47:49.306Z,3.50
2023-03-17T09:50:19.821Z,4.05
2023-03-17T09:52:46.311Z,5.45
2023-03-17T09:55:26.245Z,7.97
2023-03-17T09:57:55.990Z,4.27
2023-03-17T10:00:27.621Z,5.05
2023-03-17T10:02:54.971Z,5.70
2023-03-17T10:05:24.985Z,6.68
2023-03-17T10:08:29.439Z,4.03
2023-03-17T10:11:06.840Z,5.60
2023-03-17T10:13:50.190Z,3.95
2023-03-17T10:16:21.030Z,4.68
2023-03-17T10:19:00.724Z,4.03
2023-03-17T10:21:32.063Z,4.78
2023-03-17T10:23:59.445Z,3.30
2023-03-17T10:26:42.569Z,4.82
2023-03-17T10:29:17.547Z,4.60
2023-03-17T10:31:44.891Z,4.85
2023-03-17T10:34:33.129Z,4.32
2023-03-17T10:37:15.138Z,6.43
2023-03-17T10:39:46.221Z,6.53
2023-03-17T10:42:29.608Z,3.88
2023-03-17T10:45:17.369Z,5.78
2023-03-17T10:47:47.956Z,4.82
2023-03-17T10:50:23.165Z,3.57
2023-03-17T10:52:57.808Z,5.63
2023-03-17T10:55:29.530Z,5.32
2023-03-17T10:58:06.768Z,6.07
2023-03-17T11:00:35.600Z,5.82
2023-03-17T11:03:35.314Z,6.30
2023-03-17T11:06:11.602Z,5.40
2023-03-17T11:08:49.489Z,7.47
2023-03-17T11:11:30.788Z,4.38
2023-03-17T11:14:04.325Z,6.13
2023-03-17T11:16:34.944Z,4.30
2023-03-17T11:19:02.510Z,4.97
2023-03-17T11:21:46.846Z,5.30
2023-03-17T11:24:20.259Z,4.13
2023-03-17T11:26:59.208Z,7.63
2023-03-17T11:29:41.188Z,3.97
2023-03-17T11:32:26.659Z,5.22
2023-03-17T11:34:59.063Z,5.07
2023-03-17T11:37:31.452Z,4.20
2023-03-17T11:40:00.488Z,4.82
2023-03-17T11:42:43.140Z,4.77
2023-03-17T11:45:28.170Z,5.88
2023-03-17T11:48:00.985Z,5.05
2023-03-17T11:50:49.345Z,5.40
2023-03-17T11:53:44.852Z,3.97
2023-03-17T11:56:21.574Z,4.93
2023-03-17T11:58:53.290Z,6.05
2023-03-17T12:01:27.227Z,3.97
2023-03-17T12:04:18.580Z,5.65
2023-03-17T12:06:51.979Z,6.20
2023-03-17T12:09:30.749Z,3.77
2023-03-17T12:11:59.379Z,5.13
2023-03-17T12:14:35.127Z,5.20
2023-03-17T12:17:19.858Z,5.30
2023-03-17T12:19:57.157Z,4.40
2023-03-17T12:22:34.926Z,5.63
2023-03-17T12:25:21.150Z,8.68
2023-03-17T12:28:01.514Z,7.70
2023-03-17T12:30:52.177Z,5.25
2023-03-17T12:33:38.310Z,5.10
2023-03-17T12:36:09.525Z,5.50
2023-03-17T12:38:40.890Z,8.75
2023-03-17T12:41:28.686Z,5.78
2023-03-17T12:44:25.782Z,6.13
2023-03-17T12:46:52.195Z,5.50
2023-03-17T12:49:49.776Z,5.13
2023-03-17T12:52:30.429Z,10.10
2023-03-17T12:55:01.883Z,7.18
2023-03-17T12:57:31.785Z,6.55
2023-03-17T13:00:07.820Z,6.45
2023-03-17T13:02:38.395Z,3.90
2023-03-17T13:05:14.559Z,5.80
2023-03-17T13:08:10.947Z,4.95
2023-03-17T13:10:43.376Z,5.50
2023-03-17T13:13:21.496Z,6.18
2023-03-17T13:15:52.244Z,6.37
2023-03-17T13:18:19.012Z,4.30
2023-03-17T13:20:57.693Z,9.65
2023-03-17T13:23:42.864Z,7.25
2023-03-17T13:26:13.305Z,4.82
2023-03-17T13:28:42.817Z,7.53
2023-03-17T13:31:31.689Z,5.78
2023-03-17T13:34:20.118Z,5.57
2023-03-17T13:37:05.443Z,7.32
2023-03-17T13:40:07.891Z,6.97
2023-03-17T13:42:54.097Z,4.73
2023-03-17T13:45:38.894Z,5.45
2023-03-17T13:48:31.041Z,5.60
2023-03-17T13:51:03.302Z,5.30
2023-03-17T13:53:35.788Z,6.03
2023-03-17T13:56:11.817Z,6.00
2023-03-17T13:59:03.122Z,5.15
2023-03-17T14:01:37.626Z,9.45
2023-03-17T14:04:06.665Z,6.57
2023-03-17T14:06:38.092Z,4.72
2023-03-17T14:09:16.714Z,6.20
2023-03-17T14:11:47.614Z,6.50
2023-03-17T14:14:36.440Z,5.78
2023-03-17T14:17:12.204Z,5.72
2023-03-17T14:19:41.596Z,6.03
2023-03-17T14:22:25.337Z,8.93
2023-03-17T14:24:59.113Z,6.63
2023-03-17T14:27:27.447Z,6.03
2023-03-17T14:29:53.997Z,7.10
2023-03-17T14:32:23.687Z,6.68
2023-03-17T14:34:59.372Z,5.40
2023-03-17T14:37:27.762Z,7.78
2023-03-17T14:39:57.641Z,5.95
2023-03-17T14:42:30.369Z,5.40
2023-03-17T14:45:08.474Z,4.78
2023-03-17T14:47:40.949Z,8.30
2023-03-17T14:50:17.498Z,5.90
2023-03-17T14:52:44.338Z,6.35
2023-03-17T14:55:14.860Z,5.55
2023-03-17T14:57:41.436Z,5.40
2023-03-17T15:00:30.360Z,9.50
2023-03-17T15:02:58.769Z,6.15
2023-03-17T15:05:36.414Z,5.35
2023-03-17T15:08:22.960Z,7.63
2023-03-17T15:10:49.566Z,7.97
2023-03-17T15:13:15.996Z,6.00
2023-03-17T15:15:44.514Z,5.72
2023-03-17T15:18:14.426Z,6.30
2023-03-17T15:20:43.959Z,5.47
2023-03-17T15:23:18.395Z,6.45
2023-03-17T15:25:55.613Z,6.97
2023-03-17T15:28:25.776Z,7.50
2023-03-17T15:30:55.045Z,5.70
2023-03-17T15:33:30.603Z,6.88
2023-03-17T15:36:00.013Z,6.63
2023-03-17T15:38:26.758Z,8.07
2023-03-17T15:40:53.649Z,8.63
2023-03-17T15:43:24.058Z,4.68
2023-03-17T15:46:01.493Z,6.00
2023-03-17T15:48:31.535Z,5.75
2023-03-17T15:51:00.204Z,4.90
2023-03-17T15:53:27.543Z,6.80
2023-03-17T15:55:54.280Z,6.38
2023-03-17T15:58:21.044Z,7.40
2023-03-17T16:00:52.549Z,7.10
2023-03-17T16:03:27.449Z,6.67
2023-03-17T16:05:53.894Z,4.78
2023-03-17T16:08:22.311Z,5.97
2023-03-17T16:10:48.859Z,8.38
2023-03-17T16:13:15.337Z,6.13
2023-03-17T16:15:46.262Z,8.20
2023-03-17T16:18:18.139Z,6.70
2023-03-17T16:20:47.761Z,5.95
2023-03-17T16:23:17.416Z,6.22
2023-03-17T16:25:44.454Z,6.90
2023-03-17T16:28:25.475Z,5.20
2023-03-17T16:30:53.499Z,8.88
2023-03-17T16:33:24.537Z,7.03
2023-03-17T16:35:53.473Z,4.85
2023-03-17T16:38:22.926Z,6.78
2023-03-17T16:40:52.762Z,6.73
2023-03-17T16:43:25.722Z,7.15
2023-03-17T16:45:54.992Z,7.68
2023-03-17T16:48:21.792Z,10.20
2023-03-17T16:50:51.507Z,8.32
2023-03-17T16:53:18.212Z,6.13
2023-03-17T16:55:45.854Z,5.68
2023-03-17T16:58:21.743Z,9.57
2023-03-17T17:00:49.772Z,6.60
2023-03-17T17:03:16.846Z,9.55
2023-03-17T17:05:43.858Z,6.00
2023-03-17T17:08:10.651Z,6.68
2023-03-17T17:10:37.967Z,7.45
2023-03-17T17:13:07.693Z,7.40
2023-03-17T17:15:36.469Z,9.05
2023-03-17T17:18:09.218Z,6.93
2023-03-17T17:20:39.447Z,9.02
2023-03-17T17:23:10.947Z,10.30
2023-03-17T17:25:37.536Z,9.35
2023-03-17T17:28:04.284Z,12.13
2023-03-17T17:30:33.994Z,14.37
2023-03-17T17:33:02.357Z,10.85
2023-03-17T17:35:32.732Z,12.60
2023-03-17T17:38:00.670Z,11.20
2023-03-17T17:40:27.410Z,9.68
2023-03-17T17:42:55.227Z,9.97
2023-03-17T17:45:25.851Z,11.43
2023-03-17T17:47:52.342Z,9.30
2023-03-17T17:50:26.662Z,11.23
2023-03-17T17:52:53.236Z,10.48
2023-03-17T17:55:20.439Z,8.67
2023-03-17T17:57:46.925Z,8.48
2023-03-17T18:00:17.186Z,10.80
2023-03-17T18:02:45.181Z,11.57
2023-03-17T18:05:12.880Z,11.60
2023-03-17T18:07:40.014Z,11.70
2023-03-17T18:10:07.721Z,13.73
2023-03-17T18:12:34.258Z,11.05
2023-03-17T18:15:00.745Z,12.10
2023-03-17T18:17:27.266Z,13.30
2023-03-17T18:19:54.014Z,12.73
2023-03-17T18:22:21.515Z,12.35
2023-03-17T18:24:56.526Z,11.45
2023-03-17T18:27:22.931Z,11.10
2023-03-17T18:29:49.444Z,10.23
2023-03-17T18:32:16.046Z,9.53
2023-03-17T18:34:47.944Z,10.98
2023-03-17T18:37:17.887Z,11.10
2023-03-17T18:39:48.457Z,8.90
2023-03-17T18:42:19.601Z,8.40
2023-03-17T18:44:46.569Z,11.20
2023-03-17T18:47:15.137Z,11.35
2023-03-17T18:49:42.009Z,13.00
2023-03-17T18:52:08.656Z,10.70
2023-03-17T18:54:35.705Z,13.27
2023-03-17T18:57:02.327Z,9.07
2023-03-17T18:59:28.772Z,13.27
2023-03-17T19:01:55.986Z,9.45
2023-03-17T19:04:22.574Z,12.20
2023-03-17T19:06:49.461Z,11.23
2023-03-17T19:09:16.262Z,10.27
2023-03-17T19:11:42.910Z,12.43
2023-03-17T19:14:09.886Z,12.85
2023-03-17T19:16:36.441Z,9.23
2023-03-17T19:19:03.591Z,10.50
2023-03-17T19:21:31.015Z,8.47
2023-03-17T19:23:59.996Z,8.18
2023-03-17T19:26:27.087Z,8.48
2023-03-17T19:28:56.295Z,10.15
2023-03-17T19:31:24.678Z,9.90
2023-03-17T19:33:51.708Z,11.00
2023-03-17T19:36:18.696Z,9.57
2023-03-17T19:38:45.959Z,11.57
2023-03-17T19:41:13.509Z,10.23
2023-03-17T19:43:41.629Z,11.07
2023-03-17T19:46:12.478Z,12.95
2023-03-17T19:48:55.067Z,8.10
2023-03-17T19:51:27.185Z,6.78
2023-03-17T19:54:00.814Z,7.57
2023-03-17T19:56:27.955Z,7.80
2023-03-17T19:58:55.436Z,5.68
2023-03-17T20:01:22.922Z,7.57
2023-03-17T20:03:49.583Z,5.90
2023-03-17T20:06:16.231Z,6.97
2023-03-17T20:08:43.657Z,6.63
2023-03-17T20:11:12.235Z,7.10
2023-03-17T20:13:39.799Z,7.80
2023-03-17T20:16:07.242Z,6.72
2023-03-17T20:18:34.647Z,7.63
2023-03-17T20:21:05.554Z,7.37
2023-03-17T20:23:32.526Z,6.63
2023-03-17T20:25:59.862Z,4.70
2023-03-17T20:28:27.272Z,6.57
2023-03-17T20:30:59.768Z,6.95
2023-03-17T20:33:26.662Z,6.23
2023-03-17T20:35:53.325Z,7.32
2023-03-17T20:38:20.586Z,9.35
2023-03-17T20:40:47.327Z,8.05
2023-03-17T20:43:14.220Z,7.20
2023-03-17T20:45:44.008Z,7.63
2023-03-17T20:48:11.174Z,6.47
2023-03-17T20:50:38.908Z,7.03
2023-03-17T20:53:05.641Z,6.20
2023-03-17T20:55:32.136Z,8.13
2023-03-17T20:57:59.971Z,8.03
2023-03-17T21:00:27.107Z,11.02
2023-03-17T21:02:53.780Z,12.52
2023-03-17T21:05:24.038Z,9.15
2023-03-17T21:07:51.595Z,10.02
2023-03-17T21:10:19.215Z,9.00
2023-03-17T21:12:46.506Z,8.55
2023-03-17T21:15:14.074Z,7.32
2023-03-17T21:17:44.192Z,10.95
2023-03-17T21:20:13.940Z,8.18
2023-03-17T21:22:40.898Z,6.37
2023-03-17T21:25:09.894Z,9.13
2023-03-17T21:27:38.696Z,7.70
2023-03-17T21:30:12.073Z,5.97
2023-03-17T21:32:40.265Z,8.52
2023-03-17T21:35:07.912Z,8.17
2023-03-17T21:37:35.116Z,10.85
2023-03-17T21:40:01.785Z,9.98
2023-03-17T21:42:28.461Z,8.40
2023-03-17T21:44:55.163Z,7.85
2023-03-17T21:47:21.719Z,11.10
2023-03-17T21:49:48.599Z,6.78
2023-03-17T21:52:16.398Z,8.75
2023-03-17T21:54:42.951Z,7.53
2023-03-17T21:57:11.855Z,8.02
2023-03-17T21:59:38.683Z,7.00
2023-03-17T22:02:05.976Z,8.55
2023-03-17T22:04:32.571Z,7.90
2023-03-17T22:06:59.199Z,7.65
2023-03-17T22:09:26.359Z,7.25
2023-03-17T22:11:53.096Z,11.37
2023-03-17T22:14:20.703Z,8.07
2023-03-17T22:16:48.978Z,8.77
2023-03-17T22:19:18.199Z,7.63
2023-03-17T22:21:46.323Z,7.47
2023-03-17T22:24:13.738Z,10.57
2023-03-17T22:26:40.451Z,7.63
2023-03-17T22:29:06.912Z,6.80
2023-03-17T22:31:34.844Z,9.27
2023-03-17T22:34:02.510Z,9.02
2023-03-17T22:36:30.312Z,10.90
2023-03-17T22:38:58.384Z,8.40
2023-03-17T22:41:29.101Z,9.98
2023-03-17T22:43:55.892Z,12.05
2023-03-17T22:46:22.573Z,9.32
2023-03-17T22:48:49.600Z,13.77
2023-03-17T22:51:19.114Z,11.70
2023-03-17T22:53:45.931Z,10.98
2023-03-17T22:56:14.618Z,10.10
2023-03-17T22:58:43.978Z,8.38
2023-03-17T23:01:12.389Z,9.60
2023-03-17T23:03:39.956Z,10.07
2023-03-17T23:06:10.646Z,8.75
2023-03-17T23:08:38.537Z,7.38
2023-03-17T23:11:12.270Z,10.73
2023-03-17T23:13:43.075Z,7.70
2023-03-17T23:16:09.805Z,8.82
2023-03-17T23:18:36.700Z,7.97
2023-03-17T23:21:04.552Z,7.75
2023-03-17T23:23:31.770Z,9.05
2023-03-17T23:25:58.942Z,9.17
2023-03-17T23:28:26.082Z,9.30
2023-03-17T23:30:53.383Z,9.75
2023-03-17T23:33:21.614Z,8.32
2023-03-17T23:35:50.264Z,8.02
2023-03-17T23:38:19.648Z,10.90
2023-03-17T23:40:47.249Z,8.95
2023-03-17T23:43:14.374Z,9.13
2023-03-17T23:45:41.740Z,11.30
2023-03-17T23:48:09.974Z,11.07
2023-03-17T23:50:37.219Z,9.53
2023-03-17T23:53:03.932Z,10.07
2023-03-17T23:55:30.659Z,9.02
2023-03-17T23:57:57.135Z,8.32
